sensor_id;sensor_type;location;lat;lon;timestamp;P1;durP1;ratioP1;P2;durP2;ratioP2
74223;SDS011;62585;49.706;18.216;2023-12-14T00:01:11;26.52;;;11.23;;
74223;SDS011;62585;49.706;18.216;2023-12-14T00:03:39;23.88;;;11.80;;
74223;SDS011;62585;49.706;18.216;2023-12-14T00:06:10;21.75;;;9.90;;
74223;SDS011;62585;49.706;18.216;2023-12-14T00:08:40;22.50;;;11.57;;
74223;SDS011;62585;49.706;18.216;2023-12-14T00:11:07;27.98;;;13.68;;
74223;SDS011;62585;49.706;18.216;2023-12-14T00:13:33;27.20;;;11.55;;
74223;SDS011;62585;49.706;18.216;2023-12-14T00:16:00;24.10;;;12.32;;
74223;SDS011;62585;49.706;18.216;2023-12-14T00:18:26;24.23;;;10.65;;
74223;SDS011;62585;49.706;18.216;2023-12-14T00:20:52;24.52;;;12.95;;
74223;SDS011;62585;49.706;18.216;2023-12-14T00:23:19;23.15;;;12.50;;
74223;SDS011;62585;49.706;18.216;2023-12-14T00:25:45;29.30;;;13.18;;
74223;SDS011;62585;49.706;18.216;2023-12-14T00:28:11;29.48;;;13.90;;
74223;SDS011;62585;49.706;18.216;2023-12-14T00:30:37;27.42;;;11.90;;
74223;SDS011;62585;49.706;18.216;2023-12-14T00:33:03;29.00;;;12.85;;
74223;SDS011;62585;49.706;18.216;2023-12-14T00:35:29;35.83;;;13.35;;
74223;SDS011;62585;49.706;18.216;2023-12-14T00:37:55;34.60;;;14.88;;
74223;SDS011;62585;49.706;18.216;2023-12-14T00:40:21;30.30;;;12.77;;
74223;SDS011;62585;49.706;18.216;2023-12-14T00:42:46;29.25;;;14.30;;
74223;SDS011;62585;49.706;18.216;2023-12-14T00:45:12;27.67;;;13.60;;
74223;SDS011;62585;49.706;18.216;2023-12-14T00:47:38;26.63;;;12.38;;
74223;SDS011;62585;49.706;18.216;2023-12-14T00:50:04;31.65;;;13.00;;
74223;SDS011;62585;49.706;18.216;2023-12-14T00:52:30;25.45;;;12.10;;
74223;SDS011;62585;49.706;18.216;2023-12-14T00:54:56;29.15;;;13.52;;
74223;SDS011;62585;49.706;18.216;2023-12-14T00:57:21;30.58;;;14.30;;
74223;SDS011;62585;49.706;18.216;2023-12-14T00:59:47;30.83;;;12.07;;
74223;SDS011;62585;49.706;18.216;2023-12-14T01:02:13;30.50;;;14.05;;
74223;SDS011;62585;49.706;18.216;2023-12-14T01:04:39;37.45;;;14.32;;
74223;SDS011;62585;49.706;18.216;2023-12-14T01:07:05;34.05;;;14.63;;
74223;SDS011;62585;49.706;18.216;2023-12-14T01:09:31;38.28;;;14.75;;
74223;SDS011;62585;49.706;18.216;2023-12-14T01:11:56;30.33;;;13.18;;
74223;SDS011;62585;49.706;18.216;2023-12-14T01:14:22;31.00;;;15.23;;
74223;SDS011;62585;49.706;18.216;2023-12-14T01:16:48;33.47;;;13.73;;
74223;SDS011;62585;49.706;18.216;2023-12-14T01:19:14;30.95;;;14.98;;
74223;SDS011;62585;49.706;18.216;2023-12-14T01:21:40;27.77;;;13.27;;
74223;SDS011;62585;49.706;18.216;2023-12-14T01:24:06;30.00;;;12.68;;
74223;SDS011;62585;49.706;18.216;2023-12-14T01:26:31;32.08;;;14.70;;
74223;SDS011;62585;49.706;18.216;2023-12-14T01:28:57;30.80;;;13.80;;
74223;SDS011;62585;49.706;18.216;2023-12-14T01:31:24;31.50;;;13.55;;
74223;SDS011;62585;49.706;18.216;2023-12-14T01:33:51;35.88;;;13.93;;
74223;SDS011;62585;49.706;18.216;2023-12-14T01:36:20;30.75;;;13.52;;
74223;SDS011;62585;49.706;18.216;2023-12-14T01:38:51;35.65;;;15.77;;
74223;SDS011;62585;49.706;18.216;2023-12-14T01:41:17;36.95;;;15.02;;
74223;SDS011;62585;49.706;18.216;2023-12-14T01:43:44;39.58;;;14.85;;
74223;SDS011;62585;49.706;18.216;2023-12-14T01:46:10;36.28;;;15.02;;
74223;SDS011;62585;49.706;18.216;2023-12-14T01:48:36;44.75;;;16.40;;
74223;SDS011;62585;49.706;18.216;2023-12-14T01:51:02;50.13;;;17.67;;
74223;SDS011;62585;49.706;18.216;2023-12-14T01:53:29;48.65;;;17.25;;
74223;SDS011;62585;49.706;18.216;2023-12-14T01:55:55;41.85;;;15.68;;
74223;SDS011;62585;49.706;18.216;2023-12-14T01:58:21;40.33;;;15.73;;
74223;SDS011;62585;49.706;18.216;2023-12-14T02:03:18;41.60;;;14.93;;
74223;SDS011;62585;49.706;18.216;2023-12-14T02:05:44;45.75;;;15.13;;
74223;SDS011;62585;49.706;18.216;2023-12-14T02:08:10;44.38;;;15.77;;
74223;SDS011;62585;49.706;18.216;2023-12-14T02:13:11;48.65;;;16.45;;
74223;SDS011;62585;49.706;18.216;2023-12-14T02:15:37;47.53;;;17.70;;
74223;SDS011;62585;49.706;18.216;2023-12-14T02:18:04;41.90;;;17.55;;
74223;SDS011;62585;49.706;18.216;2023-12-14T02:20:30;46.00;;;17.38;;
74223;SDS011;62585;49.706;18.216;2023-12-14T02:22:55;42.00;;;16.77;;
74223;SDS011;62585;49.706;18.216;2023-12-14T02:25:22;49.08;;;18.10;;
74223;SDS011;62585;49.706;18.216;2023-12-14T02:27:49;44.95;;;15.68;;
74223;SDS011;62585;49.706;18.216;2023-12-14T02:30:17;48.55;;;17.83;;
74223;SDS011;62585;49.706;18.216;2023-12-14T02:32:43;46.20;;;17.98;;
74223;SDS011;62585;49.706;18.216;2023-12-14T02:35:09;51.97;;;19.67;;
74223;SDS011;62585;49.706;18.216;2023-12-14T02:37:35;41.50;;;16.02;;
74223;SDS011;62585;49.706;18.216;2023-12-14T02:40:06;51.13;;;16.10;;
74223;SDS011;62585;49.706;18.216;2023-12-14T02:42:32;45.55;;;16.95;;
74223;SDS011;62585;49.706;18.216;2023-12-14T02:44:59;48.55;;;18.05;;
74223;SDS011;62585;49.706;18.216;2023-12-14T02:47:26;51.13;;;17.92;;
74223;SDS011;62585;49.706;18.216;2023-12-14T02:49:52;48.22;;;16.77;;
74223;SDS011;62585;49.706;18.216;2023-12-14T02:52:18;45.30;;;16.85;;
74223;SDS011;62585;49.706;18.216;2023-12-14T02:54:44;48.17;;;16.60;;
74223;SDS011;62585;49.706;18.216;2023-12-14T02:57:10;44.97;;;18.25;;
74223;SDS011;62585;49.706;18.216;2023-12-14T02:59:36;47.42;;;17.38;;
74223;SDS011;62585;49.706;18.216;2023-12-14T03:02:01;52.03;;;17.58;;
74223;SDS011;62585;49.706;18.216;2023-12-14T03:04:27;51.83;;;15.85;;
74223;SDS011;62585;49.706;18.216;2023-12-14T03:06:53;46.80;;;15.93;;
74223;SDS011;62585;49.706;18.216;2023-12-14T03:09:19;42.85;;;18.45;;
74223;SDS011;62585;49.706;18.216;2023-12-14T03:11:45;50.15;;;17.02;;
74223;SDS011;62585;49.706;18.216;2023-12-14T03:14:11;53.97;;;18.75;;
74223;SDS011;62585;49.706;18.216;2023-12-14T03:16:37;48.55;;;16.83;;
74223;SDS011;62585;49.706;18.216;2023-12-14T03:19:02;46.78;;;17.52;;
74223;SDS011;62585;49.706;18.216;2023-12-14T03:21:28;38.58;;;15.02;;
74223;SDS011;62585;49.706;18.216;2023-12-14T03:23:55;41.15;;;18.33;;
74223;SDS011;62585;49.706;18.216;2023-12-14T03:26:21;47.95;;;17.20;;
74223;SDS011;62585;49.706;18.216;2023-12-14T03:28:47;54.33;;;19.73;;
74223;SDS011;62585;49.706;18.216;2023-12-14T03:31:12;57.10;;;18.08;;
74223;SDS011;62585;49.706;18.216;2023-12-14T03:33:39;56.45;;;20.45;;
74223;SDS011;62585;49.706;18.216;2023-12-14T03:36:05;63.15;;;21.13;;
74223;SDS011;62585;49.706;18.216;2023-12-14T03:38:32;67.22;;;25.08;;
74223;SDS011;62585;49.706;18.216;2023-12-14T03:40:58;65.13;;;22.60;;
74223;SDS011;62585;49.706;18.216;2023-12-14T03:43:24;81.18;;;24.95;;
74223;SDS011;62585;49.706;18.216;2023-12-14T03:45:50;77.43;;;23.88;;
74223;SDS011;62585;49.706;18.216;2023-12-14T03:48:16;93.70;;;28.60;;
74223;SDS011;62585;49.706;18.216;2023-12-14T03:50:42;100.22;;;30.00;;
74223;SDS011;62585;49.706;18.216;2023-12-14T03:53:08;100.15;;;28.38;;
74223;SDS011;62585;49.706;18.216;2023-12-14T03:55:34;86.82;;;30.40;;
74223;SDS011;62585;49.706;18.216;2023-12-14T03:58:00;106.03;;;30.17;;
74223;SDS011;62585;49.706;18.216;2023-12-14T04:00:26;95.30;;;28.15;;
74223;SDS011;62585;49.706;18.216;2023-12-14T04:02:52;95.45;;;26.85;;
74223;SDS011;62585;49.706;18.216;2023-12-14T04:05:17;77.82;;;29.05;;
74223;SDS011;62585;49.706;18.216;2023-12-14T04:07:43;93.93;;;28.52;;
74223;SDS011;62585;49.706;18.216;2023-12-14T04:10:09;86.78;;;27.92;;
74223;SDS011;62585;49.706;18.216;2023-12-14T04:15:06;79.75;;;27.75;;
74223;SDS011;62585;49.706;18.216;2023-12-14T04:17:34;101.90;;;26.42;;
74223;SDS011;62585;49.706;18.216;2023-12-14T04:19:59;87.32;;;30.00;;
74223;SDS011;62585;49.706;18.216;2023-12-14T04:22:26;82.45;;;27.45;;
74223;SDS011;62585;49.706;18.216;2023-12-14T04:24:51;83.32;;;25.35;;
74223;SDS011;62585;49.706;18.216;2023-12-14T04:27:18;98.38;;;26.15;;
74223;SDS011;62585;49.706;18.216;2023-12-14T04:29:43;82.38;;;25.48;;
74223;SDS011;62585;49.706;18.216;2023-12-14T04:32:10;76.43;;;25.25;;
74223;SDS011;62585;49.706;18.216;2023-12-14T04:34:36;97.85;;;26.55;;
74223;SDS011;62585;49.706;18.216;2023-12-14T04:37:01;97.95;;;28.30;;
74223;SDS011;62585;49.706;18.216;2023-12-14T04:39:27;88.82;;;28.50;;
74223;SDS011;62585;49.706;18.216;2023-12-14T04:41:53;89.78;;;24.83;;
74223;SDS011;62585;49.706;18.216;2023-12-14T04:44:19;90.05;;;25.52;;
74223;SDS011;62585;49.706;18.216;2023-12-14T04:49:16;80.57;;;27.13;;
74223;SDS011;62585;49.706;18.216;2023-12-14T04:51:45;87.65;;;25.58;;
74223;SDS011;62585;49.706;18.216;2023-12-14T04:54:10;86.05;;;25.08;;
74223;SDS011;62585;49.706;18.216;2023-12-14T04:56:36;75.70;;;26.55;;
74223;SDS011;62585;49.706;18.216;2023-12-14T04:59:02;98.60;;;26.55;;
74223;SDS011;62585;49.706;18.216;2023-12-14T05:01:28;91.15;;;28.17;;
74223;SDS011;62585;49.706;18.216;2023-12-14T05:03:54;97.88;;;26.17;;
74223;SDS011;62585;49.706;18.216;2023-12-14T05:06:20;80.00;;;24.45;;
74223;SDS011;62585;49.706;18.216;2023-12-14T05:08:47;84.65;;;26.45;;
74223;SDS011;62585;49.706;18.216;2023-12-14T05:11:13;91.57;;;24.70;;
74223;SDS011;62585;49.706;18.216;2023-12-14T05:13:39;81.13;;;24.17;;
74223;SDS011;62585;49.706;18.216;2023-12-14T05:16:06;83.63;;;24.02;;
74223;SDS011;62585;49.706;18.216;2023-12-14T05:18:32;92.20;;;26.20;;
74223;SDS011;62585;49.706;18.216;2023-12-14T05:20:59;89.68;;;25.35;;
74223;SDS011;62585;49.706;18.216;2023-12-14T05:23:24;85.65;;;26.55;;
74223;SDS011;62585;49.706;18.216;2023-12-14T05:25:50;72.38;;;23.92;;
74223;SDS011;62585;49.706;18.216;2023-12-14T05:28:16;92.05;;;27.00;;
74223;SDS011;62585;49.706;18.216;2023-12-14T05:30:42;79.03;;;24.05;;
74223;SDS011;62585;49.706;18.216;2023-12-14T05:33:08;77.05;;;25.33;;
74223;SDS011;62585;49.706;18.216;2023-12-14T05:35:34;67.60;;;25.60;;
74223;SDS011;62585;49.706;18.216;2023-12-14T05:38:00;75.68;;;25.98;;
74223;SDS011;62585;49.706;18.216;2023-12-14T05:40:26;68.30;;;24.23;;
74223;SDS011;62585;49.706;18.216;2023-12-14T05:42:51;65.07;;;23.20;;
74223;SDS011;62585;49.706;18.216;2023-12-14T05:45:17;68.40;;;24.02;;
74223;SDS011;62585;49.706;18.216;2023-12-14T05:47:46;81.88;;;25.65;;
74223;SDS011;62585;49.706;18.216;2023-12-14T05:50:12;75.00;;;23.92;;
74223;SDS011;62585;49.706;18.216;2023-12-14T05:52:38;66.03;;;25.20;;
74223;SDS011;62585;49.706;18.216;2023-12-14T05:55:09;75.70;;;23.20;;
74223;SDS011;62585;49.706;18.216;2023-12-14T05:57:37;63.67;;;21.45;;
74223;SDS011;62585;49.706;18.216;2023-12-14T06:00:04;92.68;;;27.35;;
74223;SDS011;62585;49.706;18.216;2023-12-14T06:02:32;71.00;;;24.85;;
74223;SDS011;62585;49.706;18.216;2023-12-14T06:04:58;65.90;;;24.15;;
74223;SDS011;62585;49.706;18.216;2023-12-14T06:07:24;73.00;;;24.83;;
74223;SDS011;62585;49.706;18.216;2023-12-14T06:09:50;66.60;;;22.27;;
74223;SDS011;62585;49.706;18.216;2023-12-14T06:12:16;65.43;;;21.58;;
74223;SDS011;62585;49.706;18.216;2023-12-14T06:14:42;63.47;;;23.10;;
74223;SDS011;62585;49.706;18.216;2023-12-14T06:17:10;64.43;;;22.35;;
74223;SDS011;62585;49.706;18.216;2023-12-14T06:19:36;79.90;;;23.27;;
74223;SDS011;62585;49.706;18.216;2023-12-14T06:22:02;65.72;;;22.20;;
74223;SDS011;62585;49.706;18.216;2023-12-14T06:24:28;71.38;;;21.10;;
74223;SDS011;62585;49.706;18.216;2023-12-14T06:26:53;68.75;;;23.75;;
74223;SDS011;62585;49.706;18.216;2023-12-14T06:29:19;68.40;;;23.02;;
74223;SDS011;62585;49.706;18.216;2023-12-14T06:31:45;68.82;;;23.63;;
74223;SDS011;62585;49.706;18.216;2023-12-14T06:34:11;61.38;;;22.20;;
74223;SDS011;62585;49.706;18.216;2023-12-14T06:36:41;67.38;;;23.55;;
74223;SDS011;62585;49.706;18.216;2023-12-14T06:39:08;61.67;;;21.17;;
74223;SDS011;62585;49.706;18.216;2023-12-14T06:41:33;64.07;;;22.85;;
74223;SDS011;62585;49.706;18.216;2023-12-14T06:43:59;59.28;;;22.25;;
74223;SDS011;62585;49.706;18.216;2023-12-14T06:46:25;65.43;;;23.30;;
74223;SDS011;62585;49.706;18.216;2023-12-14T06:48:51;64.10;;;22.58;;
74223;SDS011;62585;49.706;18.216;2023-12-14T06:51:16;69.57;;;23.95;;
74223;SDS011;62585;49.706;18.216;2023-12-14T06:53:43;68.80;;;23.08;;
74223;SDS011;62585;49.706;18.216;2023-12-14T06:56:09;60.92;;;23.75;;
74223;SDS011;62585;49.706;18.216;2023-12-14T06:58:36;65.78;;;21.67;;
74223;SDS011;62585;49.706;18.216;2023-12-14T07:01:03;55.70;;;21.70;;
74223;SDS011;62585;49.706;18.216;2023-12-14T07:03:30;65.50;;;23.48;;
74223;SDS011;62585;49.706;18.216;2023-12-14T07:05:56;66.90;;;23.15;;
74223;SDS011;62585;49.706;18.216;2023-12-14T07:08:23;63.08;;;24.38;;
74223;SDS011;62585;49.706;18.216;2023-12-14T07:10:48;70.47;;;21.95;;
74223;SDS011;62585;49.706;18.216;2023-12-14T07:13:14;67.88;;;23.23;;
74223;SDS011;62585;49.706;18.216;2023-12-14T07:15:40;61.85;;;21.08;;
74223;SDS011;62585;49.706;18.216;2023-12-14T07:18:06;71.85;;;25.10;;
74223;SDS011;62585;49.706;18.216;2023-12-14T07:20:34;78.70;;;22.92;;
74223;SDS011;62585;49.706;18.216;2023-12-14T07:23:00;67.32;;;20.83;;
74223;SDS011;62585;49.706;18.216;2023-12-14T07:25:26;67.38;;;23.45;;
74223;SDS011;62585;49.706;18.216;2023-12-14T07:27:52;74.40;;;24.40;;
74223;SDS011;62585;49.706;18.216;2023-12-14T07:30:18;66.25;;;25.80;;
74223;SDS011;62585;49.706;18.216;2023-12-14T07:32:44;71.65;;;23.17;;
74223;SDS011;62585;49.706;18.216;2023-12-14T07:35:09;70.43;;;23.02;;
74223;SDS011;62585;49.706;18.216;2023-12-14T07:37:35;82.68;;;25.55;;
74223;SDS011;62585;49.706;18.216;2023-12-14T07:40:01;84.07;;;26.92;;
74223;SDS011;62585;49.706;18.216;2023-12-14T07:42:28;77.45;;;24.33;;
74223;SDS011;62585;49.706;18.216;2023-12-14T07:44:54;73.03;;;25.73;;
74223;SDS011;62585;49.706;18.216;2023-12-14T07:47:20;75.25;;;24.45;;
74223;SDS011;62585;49.706;18.216;2023-12-14T07:49:46;60.35;;;23.05;;
74223;SDS011;62585;49.706;18.216;2023-12-14T07:52:12;65.82;;;21.55;;
74223;SDS011;62585;49.706;18.216;2023-12-14T07:54:39;74.22;;;23.67;;
74223;SDS011;62585;49.706;18.216;2023-12-14T07:57:05;67.65;;;21.65;;
74223;SDS011;62585;49.706;18.216;2023-12-14T07:59:31;62.20;;;20.55;;
74223;SDS011;62585;49.706;18.216;2023-12-14T08:01:57;63.60;;;20.60;;
74223;SDS011;62585;49.706;18.216;2023-12-14T08:04:22;79.80;;;22.10;;
74223;SDS011;62585;49.706;18.216;2023-12-14T08:06:49;65.30;;;22.60;;
74223;SDS011;62585;49.706;18.216;2023-12-14T08:09:14;80.55;;;25.45;;
74223;SDS011;62585;49.706;18.216;2023-12-14T08:11:40;66.28;;;23.42;;
74223;SDS011;62585;49.706;18.216;2023-12-14T08:14:06;70.85;;;22.33;;
74223;SDS011;62585;49.706;18.216;2023-12-14T08:16:32;67.75;;;22.80;;
74223;SDS011;62585;49.706;18.216;2023-12-14T08:18:58;65.35;;;22.52;;
74223;SDS011;62585;49.706;18.216;2023-12-14T08:21:24;58.90;;;20.60;;
74223;SDS011;62585;49.706;18.216;2023-12-14T08:23:49;60.97;;;20.52;;
74223;SDS011;62585;49.706;18.216;2023-12-14T08:26:15;71.07;;;22.27;;
74223;SDS011;62585;49.706;18.216;2023-12-14T08:28:41;71.90;;;24.35;;
74223;SDS011;62585;49.706;18.216;2023-12-14T08:31:08;64.80;;;23.13;;
74223;SDS011;62585;49.706;18.216;2023-12-14T08:33:35;64.32;;;22.08;;
74223;SDS011;62585;49.706;18.216;2023-12-14T08:36:01;64.05;;;20.27;;
74223;SDS011;62585;49.706;18.216;2023-12-14T08:38:26;68.97;;;23.63;;
74223;SDS011;62585;49.706;18.216;2023-12-14T08:40:52;60.30;;;22.70;;
74223;SDS011;62585;49.706;18.216;2023-12-14T08:43:18;59.05;;;22.83;;
74223;SDS011;62585;49.706;18.216;2023-12-14T08:45:44;68.78;;;22.90;;
74223;SDS011;62585;49.706;18.216;2023-12-14T08:48:10;73.38;;;24.00;;
74223;SDS011;62585;49.706;18.216;2023-12-14T08:50:36;62.85;;;22.65;;
74223;SDS011;62585;49.706;18.216;2023-12-14T08:53:01;68.78;;;22.55;;
74223;SDS011;62585;49.706;18.216;2023-12-14T08:55:27;69.78;;;23.85;;
74223;SDS011;62585;49.706;18.216;2023-12-14T08:57:53;67.45;;;23.10;;
74223;SDS011;62585;49.706;18.216;2023-12-14T09:00:19;62.72;;;22.80;;
74223;SDS011;62585;49.706;18.216;2023-12-14T09:02:45;66.25;;;22.35;;
74223;SDS011;62585;49.706;18.216;2023-12-14T09:05:12;63.17;;;20.55;;
74223;SDS011;62585;49.706;18.216;2023-12-14T09:07:39;63.58;;;21.83;;
74223;SDS011;62585;49.706;18.216;2023-12-14T09:10:05;63.33;;;23.70;;
74223;SDS011;62585;49.706;18.216;2023-12-14T09:12:32;73.45;;;23.75;;
74223;SDS011;62585;49.706;18.216;2023-12-14T09:15:00;64.47;;;23.20;;
74223;SDS011;62585;49.706;18.216;2023-12-14T09:17:26;67.50;;;25.58;;
74223;SDS011;62585;49.706;18.216;2023-12-14T09:20:01;77.65;;;24.95;;
74223;SDS011;62585;49.706;18.216;2023-12-14T09:22:30;68.30;;;23.00;;
74223;SDS011;62585;49.706;18.216;2023-12-14T09:24:56;62.63;;;23.50;;
74223;SDS011;62585;49.706;18.216;2023-12-14T09:27:22;68.65;;;21.65;;
74223;SDS011;62585;49.706;18.216;2023-12-14T09:29:49;61.20;;;21.92;;
74223;SDS011;62585;49.706;18.216;2023-12-14T09:32:15;58.47;;;22.73;;
74223;SDS011;62585;49.706;18.216;2023-12-14T09:34:43;58.92;;;18.85;;
74223;SDS011;62585;49.706;18.216;2023-12-14T09:37:08;55.45;;;19.48;;
74223;SDS011;62585;49.706;18.216;2023-12-14T09:39:35;50.35;;;19.25;;
74223;SDS011;62585;49.706;18.216;2023-12-14T09:42:04;49.35;;;17.70;;
74223;SDS011;62585;49.706;18.216;2023-12-14T09:44:31;50.15;;;18.58;;
74223;SDS011;62585;49.706;18.216;2023-12-14T09:46:59;61.33;;;20.52;;
74223;SDS011;62585;49.706;18.216;2023-12-14T09:49:26;50.78;;;19.63;;
74223;SDS011;62585;49.706;18.216;2023-12-14T09:51:58;54.10;;;21.20;;
74223;SDS011;62585;49.706;18.216;2023-12-14T09:54:26;49.25;;;16.77;;
74223;SDS011;62585;49.706;18.216;2023-12-14T09:56:53;49.67;;;18.30;;
74223;SDS011;62585;49.706;18.216;2023-12-14T09:59:20;55.00;;;19.25;;
74223;SDS011;62585;49.706;18.216;2023-12-14T10:01:46;47.95;;;17.52;;
74223;SDS011;62585;49.706;18.216;2023-12-14T10:04:14;46.83;;;17.45;;
74223;SDS011;62585;49.706;18.216;2023-12-14T10:06:41;53.47;;;19.08;;
74223;SDS011;62585;49.706;18.216;2023-12-14T10:09:09;46.20;;;19.85;;
74223;SDS011;62585;49.706;18.216;2023-12-14T10:11:42;46.70;;;19.50;;
74223;SDS011;62585;49.706;18.216;2023-12-14T10:14:17;49.65;;;19.67;;
74223;SDS011;62585;49.706;18.216;2023-12-14T10:16:48;65.05;;;22.73;;
74223;SDS011;62585;49.706;18.216;2023-12-14T10:19:16;49.55;;;19.85;;
74223;SDS011;62585;49.706;18.216;2023-12-14T10:21:42;60.63;;;21.63;;
74223;SDS011;62585;49.706;18.216;2023-12-14T10:24:08;54.38;;;22.23;;
74223;SDS011;62585;49.706;18.216;2023-12-14T10:26:34;62.85;;;24.88;;
74223;SDS011;62585;49.706;18.216;2023-12-14T10:29:01;48.78;;;22.05;;
74223;SDS011;62585;49.706;18.216;2023-12-14T10:31:32;54.70;;;21.88;;
74223;SDS011;62585;49.706;18.216;2023-12-14T10:36:33;46.28;;;19.08;;
74223;SDS011;62585;49.706;18.216;2023-12-14T10:39:00;50.03;;;18.30;;
74223;SDS011;62585;49.706;18.216;2023-12-14T10:41:26;44.78;;;17.52;;
74223;SDS011;62585;49.706;18.216;2023-12-14T10:43:55;46.58;;;18.20;;
74223;SDS011;62585;49.706;18.216;2023-12-14T10:48:51;43.83;;;18.02;;
74223;SDS011;62585;49.706;18.216;2023-12-14T10:51:18;59.75;;;23.48;;
74223;SDS011;62585;49.706;18.216;2023-12-14T10:53:46;59.30;;;22.30;;
74223;SDS011;62585;49.706;18.216;2023-12-14T10:56:14;59.65;;;24.38;;
74223;SDS011;62585;49.706;18.216;2023-12-14T10:58:50;68.53;;;24.80;;
74223;SDS011;62585;49.706;18.216;2023-12-14T11:01:22;58.50;;;22.73;;
74223;SDS011;62585;49.706;18.216;2023-12-14T11:03:56;62.20;;;24.98;;
74223;SDS011;62585;49.706;18.216;2023-12-14T11:08:53;70.70;;;25.00;;
74223;SDS011;62585;49.706;18.216;2023-12-14T11:11:21;59.33;;;23.75;;
74223;SDS011;62585;49.706;18.216;2023-12-14T11:13:48;68.68;;;24.15;;
74223;SDS011;62585;49.706;18.216;2023-12-14T11:16:21;73.93;;;24.63;;
74223;SDS011;62585;49.706;18.216;2023-12-14T11:24:23;65.07;;;24.23;;
74223;SDS011;62585;49.706;18.216;2023-12-14T11:26:49;75.20;;;23.33;;
74223;SDS011;62585;49.706;18.216;2023-12-14T11:29:19;64.03;;;22.88;;
74223;SDS011;62585;49.706;18.216;2023-12-14T11:31:45;63.40;;;24.38;;
74223;SDS011;62585;49.706;18.216;2023-12-14T11:34:11;61.22;;;23.95;;
74223;SDS011;62585;49.706;18.216;2023-12-14T11:36:37;65.35;;;22.90;;
74223;SDS011;62585;49.706;18.216;2023-12-14T11:39:09;64.72;;;21.67;;
74223;SDS011;62585;49.706;18.216;2023-12-14T11:41:36;68.70;;;22.77;;
74223;SDS011;62585;49.706;18.216;2023-12-14T11:44:04;64.50;;;25.10;;
74223;SDS011;62585;49.706;18.216;2023-12-14T11:46:30;62.33;;;22.25;;
74223;SDS011;62585;49.706;18.216;2023-12-14T11:48:57;55.60;;;21.98;;
74223;SDS011;62585;49.706;18.216;2023-12-14T11:51:23;63.38;;;25.67;;
74223;SDS011;62585;49.706;18.216;2023-12-14T11:53:52;63.47;;;23.67;;
74223;SDS011;62585;49.706;18.216;2023-12-14T11:56:18;70.85;;;26.42;;
74223;SDS011;62585;49.706;18.216;2023-12-14T11:58:45;71.95;;;25.23;;
74223;SDS011;62585;49.706;18.216;2023-12-14T12:01:15;67.18;;;27.48;;
74223;SDS011;62585;49.706;18.216;2023-12-14T12:03:50;57.97;;;23.80;;
74223;SDS011;62585;49.706;18.216;2023-12-14T12:06:19;68.72;;;25.38;;
74223;SDS011;62585;49.706;18.216;2023-12-14T12:08:50;70.07;;;23.17;;
74223;SDS011;62585;49.706;18.216;2023-12-14T12:11:23;58.10;;;21.67;;
74223;SDS011;62585;49.706;18.216;2023-12-14T12:13:53;65.10;;;23.08;;
74223;SDS011;62585;49.706;18.216;2023-12-14T12:16:20;54.97;;;23.45;;
74223;SDS011;62585;49.706;18.216;2023-12-14T12:18:46;64.97;;;22.60;;
74223;SDS011;62585;49.706;18.216;2023-12-14T12:21:12;65.47;;;21.80;;
74223;SDS011;62585;49.706;18.216;2023-12-14T12:23:38;65.13;;;25.83;;
74223;SDS011;62585;49.706;18.216;2023-12-14T12:26:04;61.22;;;24.95;;
74223;SDS011;62585;49.706;18.216;2023-12-14T12:28:30;59.60;;;22.92;;
74223;SDS011;62585;49.706;18.216;2023-12-14T12:30:57;64.97;;;21.80;;
74223;SDS011;62585;49.706;18.216;2023-12-14T12:33:23;56.88;;;23.15;;
74223;SDS011;62585;49.706;18.216;2023-12-14T12:35:49;64.43;;;23.70;;
74223;SDS011;62585;49.706;18.216;2023-12-14T12:38:15;67.43;;;23.27;;
74223;SDS011;62585;49.706;18.216;2023-12-14T12:40:41;65.60;;;22.00;;
74223;SDS011;62585;49.706;18.216;2023-12-14T12:43:07;66.53;;;22.25;;
74223;SDS011;62585;49.706;18.216;2023-12-14T12:45:34;62.03;;;22.88;;
74223;SDS011;62585;49.706;18.216;2023-12-14T12:48:01;58.50;;;21.73;;
74223;SDS011;62585;49.706;18.216;2023-12-14T12:50:29;57.88;;;20.60;;
74223;SDS011;62585;49.706;18.216;2023-12-14T12:52:55;70.78;;;23.30;;
74223;SDS011;62585;49.706;18.216;2023-12-14T12:55:21;53.20;;;21.88;;
74223;SDS011;62585;49.706;18.216;2023-12-14T12:57:48;57.53;;;20.88;;
74223;SDS011;62585;49.706;18.216;2023-12-14T13:00:14;55.10;;;21.40;;
74223;SDS011;62585;49.706;18.216;2023-12-14T13:02:41;67.95;;;21.02;;
74223;SDS011;62585;49.706;18.216;2023-12-14T13:05:08;51.92;;;21.05;;
74223;SDS011;62585;49.706;18.216;2023-12-14T13:07:35;60.25;;;21.42;;
74223;SDS011;62585;49.706;18.216;2023-12-14T13:10:02;51.72;;;18.58;;
74223;SDS011;62585;49.706;18.216;2023-12-14T13:12:29;48.03;;;19.20;;
74223;SDS011;62585;49.706;18.216;2023-12-14T13:14:55;46.78;;;17.50;;
74223;SDS011;62585;49.706;18.216;2023-12-14T13:17:21;42.15;;;17.27;;
74223;SDS011;62585;49.706;18.216;2023-12-14T13:19:47;48.20;;;17.63;;
74223;SDS011;62585;49.706;18.216;2023-12-14T13:22:13;42.03;;;15.48;;
74223;SDS011;62585;49.706;18.216;2023-12-14T13:24:39;44.88;;;17.30;;
74223;SDS011;62585;49.706;18.216;2023-12-14T13:27:05;48.08;;;16.70;;
74223;SDS011;62585;49.706;18.216;2023-12-14T13:29:31;45.85;;;19.65;;
74223;SDS011;62585;49.706;18.216;2023-12-14T13:31:58;44.90;;;18.70;;
74223;SDS011;62585;49.706;18.216;2023-12-14T13:34:27;44.67;;;16.67;;
74223;SDS011;62585;49.706;18.216;2023-12-14T13:36:54;43.28;;;18.00;;
74223;SDS011;62585;49.706;18.216;2023-12-14T13:39:20;44.05;;;16.52;;
74223;SDS011;62585;49.706;18.216;2023-12-14T13:41:46;46.08;;;17.67;;
74223;SDS011;62585;49.706;18.216;2023-12-14T13:44:11;38.17;;;16.52;;
74223;SDS011;62585;49.706;18.216;2023-12-14T13:46:37;40.03;;;16.45;;
74223;SDS011;62585;49.706;18.216;2023-12-14T13:49:03;42.83;;;15.45;;
74223;SDS011;62585;49.706;18.216;2023-12-14T13:51:29;39.50;;;15.57;;
74223;SDS011;62585;49.706;18.216;2023-12-14T13:53:55;43.97;;;15.93;;
74223;SDS011;62585;49.706;18.216;2023-12-14T13:56:21;39.20;;;16.85;;
74223;SDS011;62585;49.706;18.216;2023-12-14T13:58:46;41.63;;;16.20;;
74223;SDS011;62585;49.706;18.216;2023-12-14T14:01:12;48.35;;;16.50;;
74223;SDS011;62585;49.706;18.216;2023-12-14T14:03:40;41.50;;;17.40;;
74223;SDS011;62585;49.706;18.216;2023-12-14T14:06:07;38.95;;;17.35;;
74223;SDS011;62585;49.706;18.216;2023-12-14T14:08:33;39.88;;;16.55;;
74223;SDS011;62585;49.706;18.216;2023-12-14T14:11:00;47.83;;;18.48;;
74223;SDS011;62585;49.706;18.216;2023-12-14T14:13:27;47.17;;;18.50;;
74223;SDS011;62585;49.706;18.216;2023-12-14T14:15:53;36.55;;;14.95;;
74223;SDS011;62585;49.706;18.216;2023-12-14T14:18:19;39.45;;;15.20;;
74223;SDS011;62585;49.706;18.216;2023-12-14T14:20:45;43.63;;;15.82;;
74223;SDS011;62585;49.706;18.216;2023-12-14T14:23:11;45.88;;;17.15;;
74223;SDS011;62585;49.706;18.216;2023-12-14T14:25:37;43.70;;;16.27;;
74223;SDS011;62585;49.706;18.216;2023-12-14T14:28:03;37.15;;;15.18;;